ITY324 LIRF-LFPG
Flight info
| Callsign | ITY324 |
|---|---|
| Flight time | 1h 41m |
| Altitude | 38000 |
| Route | NEMBO DCT GOVGO DCT AOSTA DCT ORSUD DCT MOLUS DCT UNKIR DCT GIVRI DCT TINIL |
| Aircraft | A320/M-SDE3FGHIRWY/LB1 |
Departure
| Time | 2026-05-05 14:20 |
|---|---|
| Airport | Rome–Fiumicino Leonardo da Vinci International Airport (LIRF) |
Arrival
| Time | 2026-05-05 16:01 |
|---|---|
| Airport | Charles de Gaulle International Airport (LFPG) |
| Time | Latitude | Longitude | Altitude | Speed | Heading |
|---|---|---|---|---|---|
| 2026-05-05 13:49 | 41.79705 | 12.25845 | 16 ft | 0 kts | 115° |
| 2026-05-05 14:08 | 41.79709 | 12.25832 | 15 ft | 4 kts | 115° |
| 2026-05-05 14:09 | 41.79719 | 12.25805 | 15 ft | 4 kts | 107° |
| 2026-05-05 14:09 | 41.79719 | 12.25775 | 15 ft | 4 kts | 45° |
| 2026-05-05 14:09 | 41.79697 | 12.25756 | 17 ft | 4 kts | 24° |
| 2026-05-05 14:09 | 41.79674 | 12.25742 | 15 ft | 4 kts | 25° |
| 2026-05-05 14:10 | 41.79657 | 12.25731 | 15 ft | 0 kts | 25° |
| 2026-05-05 14:13 | 41.79684 | 12.25748 | 14 ft | 12 kts | 25° |
| 2026-05-05 14:13 | 41.79756 | 12.25793 | 14 ft | 11 kts | 25° |
| 2026-05-05 14:14 | 41.79823 | 12.25832 | 14 ft | 10 kts | 16° |
| 2026-05-05 14:14 | 41.79884 | 12.25832 | 14 ft | 8 kts | 17° |
| 2026-05-05 14:14 | 41.79935 | 12.25861 | 14 ft | 8 kts | 24° |
| 2026-05-05 14:14 | 41.80005 | 12.25904 | 14 ft | 11 kts | 24° |
| 2026-05-05 14:15 | 41.80075 | 12.25947 | 16 ft | 10 kts | 25° |
| 2026-05-05 14:15 | 41.80138 | 12.25986 | 15 ft | 9 kts | 25° |
| 2026-05-05 14:15 | 41.80195 | 12.26021 | 14 ft | 9 kts | 25° |
| 2026-05-05 14:15 | 41.80246 | 12.26053 | 14 ft | 8 kts | 25° |
| 2026-05-05 14:16 | 41.80353 | 12.26118 | 16 ft | 23 kts | 24° |
| 2026-05-05 14:16 | 41.80494 | 12.26185 | 18 ft | 19 kts | 27° |
| 2026-05-05 14:16 | 41.80556 | 12.26336 | 16 ft | 20 kts | 70° |
| 2026-05-05 14:16 | 41.80605 | 12.26517 | 18 ft | 22 kts | 70° |
| 2026-05-05 14:17 | 41.80659 | 12.26712 | 15 ft | 24 kts | 70° |
| 2026-05-05 14:17 | 41.80716 | 12.26916 | 14 ft | 21 kts | 69° |
| 2026-05-05 14:17 | 41.80783 | 12.27044 | 13 ft | 17 kts | 13° |
| 2026-05-05 14:17 | 41.80871 | 12.27009 | 13 ft | 0 kts | 338° |
| 2026-05-05 14:18 | 41.80893 | 12.26999 | 13 ft | 8 kts | 342° |
| 2026-05-05 14:19 | 41.80951 | 12.26969 | 14 ft | 10 kts | 324° |
| 2026-05-05 14:19 | 41.80920 | 12.26794 | 15 ft | 47 kts | 249° |
| 2026-05-05 14:19 | 41.80718 | 12.26071 | 19 ft | 116 kts | 250° |
| 2026-05-05 14:19 | 41.80374 | 12.24818 | 30 ft | 167 kts | 249° |
| 2026-05-05 14:20 | 41.80000 | 12.23366 | 694 ft | 163 kts | 243° |
| 2026-05-05 14:20 | 41.79602 | 12.21932 | 1358 ft | 166 kts | 242° |
| 2026-05-05 14:20 | 41.79277 | 12.20362 | 1784 ft | 192 kts | 262° |
| 2026-05-05 14:20 | 41.79237 | 12.18454 | 2146 ft | 217 kts | 263° |
| 2026-05-05 14:21 | 41.79175 | 12.16332 | 2627 ft | 239 kts | 264° |
| 2026-05-05 14:21 | 41.79098 | 12.14014 | 3235 ft | 258 kts | 264° |
| 2026-05-05 14:21 | 41.79021 | 12.11572 | 4149 ft | 260 kts | 266° |
| 2026-05-05 14:21 | 41.78971 | 12.09142 | 5195 ft | 261 kts | 266° |
| 2026-05-05 14:22 | 41.78965 | 12.06733 | 6301 ft | 258 kts | 268° |
| 2026-05-05 14:22 | 41.78978 | 12.04320 | 7192 ft | 262 kts | 269° |
| 2026-05-05 14:22 | 41.78993 | 12.01867 | 8066 ft | 265 kts | 269° |
| 2026-05-05 14:22 | 41.79003 | 11.99377 | 8930 ft | 269 kts | 268° |
| 2026-05-05 14:23 | 41.79007 | 11.96859 | 9836 ft | 271 kts | 268° |
| 2026-05-05 14:23 | 41.79006 | 11.94284 | 10397 ft | 286 kts | 268° |
| 2026-05-05 14:23 | 41.78995 | 11.91510 | 10662 ft | 310 kts | 268° |
| 2026-05-05 14:23 | 41.78982 | 11.88532 | 11015 ft | 327 kts | 268° |
| 2026-05-05 14:24 | 41.78971 | 11.85488 | 11652 ft | 334 kts | 268° |
| 2026-05-05 14:24 | 41.78962 | 11.82358 | 12394 ft | 338 kts | 268° |
| 2026-05-05 14:24 | 41.78952 | 11.79193 | 13151 ft | 341 kts | 268° |
| 2026-05-05 14:24 | 41.78940 | 11.75994 | 13891 ft | 345 kts | 268° |
| 2026-05-05 14:25 | 41.78926 | 11.72762 | 14570 ft | 349 kts | 268° |
| 2026-05-05 14:25 | 41.78912 | 11.69496 | 15222 ft | 352 kts | 268° |
| 2026-05-05 14:25 | 41.78896 | 11.66197 | 15876 ft | 355 kts | 268° |
| 2026-05-05 14:25 | 41.78879 | 11.62872 | 16530 ft | 359 kts | 268° |
| 2026-05-05 14:26 | 41.78936 | 11.59517 | 17153 ft | 363 kts | 274° |
| 2026-05-05 14:26 | 41.79470 | 11.56185 | 17785 ft | 370 kts | 286° |
| 2026-05-05 14:26 | 41.80542 | 11.53030 | 18396 ft | 377 kts | 298° |
| 2026-05-05 14:26 | 41.82127 | 11.50187 | 18952 ft | 384 kts | 308° |
| 2026-05-05 14:27 | 41.83900 | 11.47503 | 19553 ft | 385 kts | 308° |
| 2026-05-05 14:27 | 41.85678 | 11.44801 | 20158 ft | 387 kts | 308° |
| 2026-05-05 14:27 | 41.87464 | 11.42075 | 20740 ft | 390 kts | 308° |
| 2026-05-05 14:27 | 41.89260 | 11.39329 | 21297 ft | 392 kts | 308° |
| 2026-05-05 14:28 | 41.91066 | 11.36565 | 21844 ft | 395 kts | 308° |
| 2026-05-05 14:28 | 41.92883 | 11.33780 | 22376 ft | 398 kts | 308° |
| 2026-05-05 14:28 | 41.94713 | 11.30971 | 22900 ft | 401 kts | 308° |
| 2026-05-05 14:28 | 41.96555 | 11.28140 | 23402 ft | 404 kts | 308° |
| 2026-05-05 14:29 | 41.98387 | 11.25321 | 23825 ft | 406 kts | 308° |
| 2026-05-05 14:29 | 42.00248 | 11.22452 | 24253 ft | 408 kts | 307° |
| 2026-05-05 14:29 | 42.02117 | 11.19575 | 24685 ft | 409 kts | 307° |
| 2026-05-05 14:29 | 42.03995 | 11.16685 | 25114 ft | 410 kts | 307° |
| 2026-05-05 14:30 | 42.05874 | 11.13788 | 25536 ft | 411 kts | 307° |
| 2026-05-05 14:30 | 42.07756 | 11.10879 | 25958 ft | 412 kts | 307° |
| 2026-05-05 14:30 | 42.09642 | 11.07962 | 26357 ft | 413 kts | 307° |
| 2026-05-05 14:30 | 42.11531 | 11.05037 | 26749 ft | 415 kts | 306° |
| 2026-05-05 14:31 | 42.13428 | 11.02096 | 27133 ft | 416 kts | 306° |
| 2026-05-05 14:31 | 42.15329 | 10.99146 | 27504 ft | 417 kts | 306° |
| 2026-05-05 14:31 | 42.17235 | 10.96186 | 27876 ft | 418 kts | 306° |
| 2026-05-05 14:31 | 42.19145 | 10.93219 | 28235 ft | 420 kts | 306° |
| 2026-05-05 14:32 | 42.21065 | 10.90239 | 28580 ft | 421 kts | 306° |
| 2026-05-05 14:32 | 42.22961 | 10.87288 | 28907 ft | 422 kts | 306° |
| 2026-05-05 14:32 | 42.24886 | 10.84286 | 29221 ft | 423 kts | 306° |
| 2026-05-05 14:32 | 42.26841 | 10.81306 | 29518 ft | 427 kts | 309° |
| 2026-05-05 14:33 | 42.29110 | 10.78667 | 29817 ft | 435 kts | 319° |
| 2026-05-05 14:33 | 42.31734 | 10.76543 | 30084 ft | 445 kts | 328° |
| 2026-05-05 14:33 | 42.34633 | 10.74980 | 30310 ft | 451 kts | 333° |
| 2026-05-05 14:33 | 42.37581 | 10.73544 | 30618 ft | 450 kts | 333° |
| 2026-05-05 14:34 | 42.40524 | 10.72101 | 30921 ft | 449 kts | 333° |
| 2026-05-05 14:34 | 42.43458 | 10.70659 | 31226 ft | 447 kts | 333° |
| 2026-05-05 14:34 | 42.46377 | 10.69217 | 31535 ft | 446 kts | 332° |
| 2026-05-05 14:34 | 42.49287 | 10.67766 | 31851 ft | 445 kts | 332° |
| 2026-05-05 14:35 | 42.52186 | 10.66314 | 32179 ft | 444 kts | 332° |
| 2026-05-05 14:35 | 42.55085 | 10.64867 | 32492 ft | 443 kts | 332° |
| 2026-05-05 14:35 | 42.57970 | 10.63429 | 32805 ft | 442 kts | 332° |
| 2026-05-05 14:35 | 42.60854 | 10.61995 | 33121 ft | 441 kts | 332° |
| 2026-05-05 14:36 | 42.63729 | 10.60567 | 33433 ft | 440 kts | 332° |
| 2026-05-05 14:36 | 42.66601 | 10.59138 | 33755 ft | 438 kts | 331° |
| 2026-05-05 14:36 | 42.69463 | 10.57713 | 34063 ft | 437 kts | 331° |
| 2026-05-05 14:36 | 42.72318 | 10.56288 | 34309 ft | 438 kts | 331° |
| 2026-05-05 14:37 | 42.75183 | 10.54855 | 34552 ft | 438 kts | 331° |
| 2026-05-05 14:37 | 42.78042 | 10.53419 | 34780 ft | 439 kts | 331° |
| 2026-05-05 14:37 | 42.80904 | 10.51977 | 35011 ft | 439 kts | 331° |
| 2026-05-05 14:37 | 42.83766 | 10.50536 | 35235 ft | 438 kts | 331° |
| 2026-05-05 14:38 | 42.86633 | 10.49098 | 35467 ft | 438 kts | 332° |
| 2026-05-05 14:38 | 42.89493 | 10.47664 | 35694 ft | 438 kts | 332° |
| 2026-05-05 14:38 | 42.92317 | 10.46247 | 35912 ft | 437 kts | 332° |
| 2026-05-05 14:38 | 42.95175 | 10.44813 | 36133 ft | 437 kts | 332° |
| 2026-05-05 14:39 | 42.98029 | 10.43380 | 36357 ft | 437 kts | 332° |
| 2026-05-05 14:39 | 43.00876 | 10.41943 | 36552 ft | 436 kts | 332° |
| 2026-05-05 14:39 | 43.03728 | 10.40504 | 36751 ft | 436 kts | 332° |
| 2026-05-05 14:39 | 43.06575 | 10.39064 | 36949 ft | 436 kts | 332° |
| 2026-05-05 14:40 | 43.09416 | 10.37625 | 37141 ft | 435 kts | 332° |
| 2026-05-05 14:40 | 43.12255 | 10.36187 | 37330 ft | 435 kts | 332° |
| 2026-05-05 14:40 | 43.15090 | 10.34744 | 37513 ft | 434 kts | 330° |
| 2026-05-05 14:40 | 43.17777 | 10.32972 | 37709 ft | 425 kts | 321° |
| 2026-05-05 14:41 | 43.20183 | 10.30697 | 37880 ft | 417 kts | 314° |
| 2026-05-05 14:41 | 43.22455 | 10.28218 | 37980 ft | 418 kts | 314° |
| 2026-05-05 14:41 | 43.27001 | 10.23305 | 37983 ft | 419 kts | 315° |
| 2026-05-05 14:42 | 43.31594 | 10.18372 | 37983 ft | 420 kts | 315° |
| 2026-05-05 14:42 | 43.36194 | 10.13405 | 37983 ft | 421 kts | 315° |
| 2026-05-05 14:43 | 43.40788 | 10.08415 | 37981 ft | 421 kts | 315° |
| 2026-05-05 14:43 | 43.45394 | 10.03401 | 37982 ft | 422 kts | 315° |
| 2026-05-05 14:44 | 43.49998 | 9.98387 | 37984 ft | 422 kts | 315° |
| 2026-05-05 14:44 | 43.54605 | 9.93363 | 37981 ft | 422 kts | 314° |
| 2026-05-05 14:45 | 43.58432 | 9.89180 | 37981 ft | 422 kts | 314° |
| 2026-05-05 14:45 | 43.63791 | 9.83306 | 38014 ft | 423 kts | 314° |
| 2026-05-05 14:46 | 43.67634 | 9.79086 | 37998 ft | 424 kts | 314° |
| 2026-05-05 14:46 | 43.72252 | 9.74005 | 37985 ft | 424 kts | 314° |
| 2026-05-05 14:47 | 43.76872 | 9.68914 | 37978 ft | 424 kts | 314° |
| 2026-05-05 14:47 | 43.81492 | 9.63814 | 37973 ft | 425 kts | 314° |
| 2026-05-05 14:48 | 43.86115 | 9.58702 | 37976 ft | 426 kts | 314° |
| 2026-05-05 14:48 | 43.90747 | 9.53571 | 37962 ft | 426 kts | 314° |
| 2026-05-05 14:49 | 43.95372 | 9.48427 | 37963 ft | 426 kts | 314° |
| 2026-05-05 14:49 | 44.00009 | 9.43260 | 37963 ft | 427 kts | 314° |
| 2026-05-05 14:50 | 44.04620 | 9.38116 | 37972 ft | 429 kts | 314° |
| 2026-05-05 14:50 | 44.09279 | 9.32908 | 37949 ft | 430 kts | 314° |
| 2026-05-05 14:51 | 44.13960 | 9.27670 | 37947 ft | 431 kts | 314° |
| 2026-05-05 14:51 | 44.18641 | 9.22415 | 37945 ft | 432 kts | 314° |
| 2026-05-05 14:52 | 44.23322 | 9.17150 | 37952 ft | 433 kts | 314° |
| 2026-05-05 14:52 | 44.28011 | 9.11873 | 37956 ft | 433 kts | 315° |
| 2026-05-05 14:53 | 44.32668 | 9.06607 | 37992 ft | 434 kts | 314° |
| 2026-05-05 14:53 | 44.37374 | 9.01279 | 37983 ft | 435 kts | 314° |
| 2026-05-05 14:54 | 44.42074 | 8.95947 | 37978 ft | 435 kts | 314° |
| 2026-05-05 14:54 | 44.46774 | 8.90600 | 37976 ft | 436 kts | 314° |
| 2026-05-05 14:55 | 44.51473 | 8.85245 | 37978 ft | 435 kts | 314° |
| 2026-05-05 14:55 | 44.56167 | 8.79878 | 37976 ft | 435 kts | 314° |
| 2026-05-05 14:56 | 44.60864 | 8.74505 | 37975 ft | 436 kts | 314° |
| 2026-05-05 14:56 | 44.65529 | 8.69164 | 37988 ft | 436 kts | 314° |
| 2026-05-05 14:57 | 44.70220 | 8.63762 | 37979 ft | 436 kts | 314° |
| 2026-05-05 14:57 | 44.74924 | 8.58349 | 37965 ft | 437 kts | 314° |
| 2026-05-05 14:58 | 44.79634 | 8.52923 | 37967 ft | 437 kts | 314° |
| 2026-05-05 14:58 | 44.84342 | 8.47477 | 37975 ft | 438 kts | 314° |
| 2026-05-05 14:59 | 44.89044 | 8.42009 | 38003 ft | 438 kts | 313° |
| 2026-05-05 14:59 | 44.93727 | 8.36561 | 37981 ft | 440 kts | 313° |
| 2026-05-05 15:00 | 44.97688 | 8.31954 | 37971 ft | 441 kts | 313° |
| 2026-05-05 15:00 | 45.03197 | 8.25544 | 37977 ft | 442 kts | 313° |
| 2026-05-05 15:01 | 45.07939 | 8.19995 | 37979 ft | 442 kts | 313° |
| 2026-05-05 15:01 | 45.12681 | 8.14434 | 37989 ft | 443 kts | 313° |
| 2026-05-05 15:02 | 45.17428 | 8.08849 | 38003 ft | 444 kts | 313° |
| 2026-05-05 15:02 | 45.22186 | 8.03246 | 37999 ft | 445 kts | 313° |
| 2026-05-05 15:03 | 45.26953 | 7.97631 | 37995 ft | 446 kts | 313° |
| 2026-05-05 15:03 | 45.31701 | 7.92022 | 38018 ft | 447 kts | 313° |
| 2026-05-05 15:04 | 45.36476 | 7.86354 | 38008 ft | 447 kts | 313° |
| 2026-05-05 15:04 | 45.41256 | 7.80674 | 38002 ft | 448 kts | 313° |
| 2026-05-05 15:05 | 45.48447 | 7.72105 | 38011 ft | 449 kts | 313° |
| 2026-05-05 15:06 | 45.53240 | 7.66374 | 38022 ft | 450 kts | 313° |
| 2026-05-05 15:06 | 45.58029 | 7.60626 | 38007 ft | 450 kts | 313° |
| 2026-05-05 15:07 | 45.62823 | 7.54872 | 38011 ft | 450 kts | 313° |
| 2026-05-05 15:07 | 45.67598 | 7.49149 | 38001 ft | 450 kts | 313° |
| 2026-05-05 15:08 | 45.72387 | 7.43370 | 37988 ft | 451 kts | 313° |
| 2026-05-05 15:08 | 45.77181 | 7.37572 | 38007 ft | 451 kts | 313° |
| 2026-05-05 15:09 | 45.82057 | 7.31879 | 37994 ft | 453 kts | 317° |
| 2026-05-05 15:09 | 45.87220 | 7.26634 | 37983 ft | 455 kts | 319° |
| 2026-05-05 15:10 | 45.92464 | 7.21526 | 37972 ft | 455 kts | 319° |
| 2026-05-05 15:10 | 45.97650 | 7.16332 | 37935 ft | 454 kts | 318° |
| 2026-05-05 15:11 | 46.02758 | 7.11065 | 37939 ft | 456 kts | 319° |
| 2026-05-05 15:11 | 46.07921 | 7.05721 | 37925 ft | 457 kts | 319° |
| 2026-05-05 15:12 | 46.13098 | 7.00400 | 37911 ft | 457 kts | 319° |
| 2026-05-05 15:12 | 46.18275 | 6.95076 | 37906 ft | 455 kts | 320° |
| 2026-05-05 15:13 | 46.23405 | 6.89787 | 37906 ft | 457 kts | 320° |
| 2026-05-05 15:13 | 46.28586 | 6.84417 | 37912 ft | 459 kts | 319° |
| 2026-05-05 15:14 | 46.33773 | 6.79015 | 37929 ft | 459 kts | 320° |
| 2026-05-05 15:14 | 46.38966 | 6.73602 | 37928 ft | 460 kts | 320° |
| 2026-05-05 15:15 | 46.43884 | 6.67753 | 37921 ft | 453 kts | 307° |
| 2026-05-05 15:15 | 46.47383 | 6.60391 | 37918 ft | 445 kts | 295° |
| 2026-05-05 15:16 | 46.50455 | 6.52589 | 37920 ft | 445 kts | 295° |
| 2026-05-05 15:16 | 46.53538 | 6.44790 | 37945 ft | 446 kts | 296° |
| 2026-05-05 15:17 | 46.56624 | 6.36967 | 37928 ft | 447 kts | 295° |
| 2026-05-05 15:17 | 46.59704 | 6.29111 | 37920 ft | 447 kts | 295° |
| 2026-05-05 15:18 | 46.62789 | 6.21232 | 37920 ft | 448 kts | 296° |
| 2026-05-05 15:18 | 46.65869 | 6.13354 | 37918 ft | 448 kts | 295° |
| 2026-05-05 15:19 | 46.68916 | 6.05500 | 37944 ft | 448 kts | 296° |
| 2026-05-05 15:19 | 46.71974 | 5.97590 | 37920 ft | 448 kts | 295° |
| 2026-05-05 15:20 | 46.75037 | 5.89656 | 37922 ft | 449 kts | 295° |
| 2026-05-05 15:20 | 46.78090 | 5.81717 | 37915 ft | 449 kts | 295° |
| 2026-05-05 15:21 | 46.81620 | 5.74158 | 37912 ft | 455 kts | 310° |
| 2026-05-05 15:21 | 46.86681 | 5.68594 | 37913 ft | 464 kts | 329° |
| 2026-05-05 15:22 | 46.92364 | 5.64082 | 37879 ft | 465 kts | 328° |
| 2026-05-05 15:22 | 46.98038 | 5.59505 | 37877 ft | 466 kts | 328° |
| 2026-05-05 15:23 | 47.03714 | 5.54899 | 37866 ft | 466 kts | 328° |
| 2026-05-05 15:23 | 47.09401 | 5.50291 | 37878 ft | 467 kts | 328° |
| 2026-05-05 15:24 | 47.15123 | 5.45665 | 37468 ft | 477 kts | 328° |
| 2026-05-05 15:24 | 47.18048 | 5.43291 | 36988 ft | 482 kts | 328° |
| 2026-05-05 15:24 | 47.20990 | 5.40902 | 36523 ft | 484 kts | 328° |
| 2026-05-05 15:24 | 47.23943 | 5.38503 | 36072 ft | 484 kts | 328° |
| 2026-05-05 15:25 | 47.26854 | 5.36132 | 35648 ft | 485 kts | 328° |
| 2026-05-05 15:25 | 47.29809 | 5.33719 | 35213 ft | 487 kts | 328° |
| 2026-05-05 15:25 | 47.32764 | 5.31304 | 34835 ft | 486 kts | 328° |
| 2026-05-05 15:25 | 47.35728 | 5.28879 | 34597 ft | 488 kts | 328° |
| 2026-05-05 15:26 | 47.38713 | 5.26440 | 34359 ft | 489 kts | 328° |
| 2026-05-05 15:26 | 47.41693 | 5.24005 | 34127 ft | 490 kts | 328° |
| 2026-05-05 15:26 | 47.44681 | 5.21562 | 33901 ft | 490 kts | 328° |
| 2026-05-05 15:26 | 47.47659 | 5.19124 | 33625 ft | 490 kts | 328° |
| 2026-05-05 15:27 | 47.50640 | 5.16676 | 33342 ft | 490 kts | 329° |
| 2026-05-05 15:27 | 47.53620 | 5.14216 | 33064 ft | 490 kts | 329° |
| 2026-05-05 15:27 | 47.56602 | 5.11751 | 32790 ft | 491 kts | 329° |
| 2026-05-05 15:27 | 47.59470 | 5.09033 | 32518 ft | 490 kts | 321° |
| 2026-05-05 15:28 | 47.62106 | 5.05827 | 32128 ft | 489 kts | 317° |
| 2026-05-05 15:28 | 47.64675 | 5.02597 | 31298 ft | 478 kts | 318° |
| 2026-05-05 15:28 | 47.67207 | 4.99426 | 29849 ft | 475 kts | 319° |
| 2026-05-05 15:28 | 47.69727 | 4.96270 | 28626 ft | 467 kts | 319° |
| 2026-05-05 15:29 | 47.72142 | 4.93244 | 28274 ft | 445 kts | 319° |
| 2026-05-05 15:29 | 47.74472 | 4.90314 | 27571 ft | 444 kts | 319° |
| 2026-05-05 15:29 | 47.76847 | 4.87310 | 27353 ft | 454 kts | 319° |
| 2026-05-05 15:29 | 47.79265 | 4.84245 | 27101 ft | 457 kts | 319° |
| 2026-05-05 15:30 | 47.81683 | 4.81177 | 26794 ft | 456 kts | 319° |
| 2026-05-05 15:30 | 47.84096 | 4.78109 | 26489 ft | 454 kts | 319° |
| 2026-05-05 15:30 | 47.86491 | 4.75060 | 26189 ft | 452 kts | 318° |
| 2026-05-05 15:30 | 47.88879 | 4.72013 | 25873 ft | 450 kts | 318° |
| 2026-05-05 15:31 | 47.91248 | 4.68992 | 25575 ft | 447 kts | 318° |
| 2026-05-05 15:31 | 47.93609 | 4.65978 | 25288 ft | 445 kts | 319° |
| 2026-05-05 15:31 | 47.95952 | 4.62979 | 24979 ft | 442 kts | 319° |
| 2026-05-05 15:31 | 47.98283 | 4.59990 | 24679 ft | 441 kts | 318° |
| 2026-05-05 15:32 | 48.00608 | 4.57005 | 24382 ft | 439 kts | 318° |
| 2026-05-05 15:32 | 48.02884 | 4.54086 | 24091 ft | 436 kts | 318° |
| 2026-05-05 15:32 | 48.05179 | 4.51139 | 23795 ft | 433 kts | 318° |
| 2026-05-05 15:32 | 48.07464 | 4.48197 | 23510 ft | 432 kts | 318° |
| 2026-05-05 15:33 | 48.09730 | 4.45276 | 23193 ft | 428 kts | 318° |
| 2026-05-05 15:33 | 48.11981 | 4.42372 | 22901 ft | 426 kts | 318° |
| 2026-05-05 15:33 | 48.14219 | 4.39482 | 22609 ft | 424 kts | 318° |
| 2026-05-05 15:33 | 48.16459 | 4.36582 | 22331 ft | 424 kts | 318° |
| 2026-05-05 15:34 | 48.17936 | 4.34668 | 22143 ft | 423 kts | 318° |
| 2026-05-05 15:34 | 48.20875 | 4.30858 | 21771 ft | 421 kts | 318° |
| 2026-05-05 15:34 | 48.23084 | 4.27996 | 21495 ft | 419 kts | 317° |
| 2026-05-05 15:34 | 48.25282 | 4.25139 | 21212 ft | 416 kts | 317° |
| 2026-05-05 15:35 | 48.27271 | 4.22025 | 20936 ft | 411 kts | 308° |
| 2026-05-05 15:35 | 48.28499 | 4.19785 | 20754 ft | 410 kts | 308° |
| 2026-05-05 15:35 | 48.30897 | 4.15417 | 20390 ft | 408 kts | 308° |
| 2026-05-05 15:35 | 48.32087 | 4.13243 | 20210 ft | 406 kts | 308° |
| 2026-05-05 15:36 | 48.33873 | 4.09975 | 19938 ft | 404 kts | 308° |
| 2026-05-05 15:36 | 48.35658 | 4.06710 | 19632 ft | 402 kts | 308° |
| 2026-05-05 15:36 | 48.37433 | 4.03471 | 19243 ft | 400 kts | 308° |
| 2026-05-05 15:36 | 48.39201 | 4.00242 | 18879 ft | 399 kts | 308° |
| 2026-05-05 15:37 | 48.40964 | 3.97016 | 18515 ft | 396 kts | 307° |
| 2026-05-05 15:37 | 48.42703 | 3.93823 | 18151 ft | 394 kts | 307° |
| 2026-05-05 15:37 | 48.44432 | 3.90643 | 17761 ft | 391 kts | 307° |
| 2026-05-05 15:37 | 48.46152 | 3.87481 | 17400 ft | 389 kts | 307° |
| 2026-05-05 15:38 | 48.47860 | 3.84341 | 17049 ft | 387 kts | 307° |
| 2026-05-05 15:38 | 48.49558 | 3.81214 | 16692 ft | 384 kts | 307° |
| 2026-05-05 15:38 | 48.51224 | 3.78137 | 16341 ft | 382 kts | 307° |
| 2026-05-05 15:38 | 48.52902 | 3.75033 | 15990 ft | 381 kts | 307° |
| 2026-05-05 15:39 | 48.54477 | 3.71846 | 15667 ft | 377 kts | 300° |
| 2026-05-05 15:39 | 48.55895 | 3.68516 | 15504 ft | 376 kts | 300° |
| 2026-05-05 15:39 | 48.57316 | 3.65209 | 15306 ft | 374 kts | 301° |
| 2026-05-05 15:39 | 48.58734 | 3.61920 | 15126 ft | 373 kts | 301° |
| 2026-05-05 15:40 | 48.60147 | 3.58640 | 14932 ft | 372 kts | 301° |
| 2026-05-05 15:40 | 48.61564 | 3.55346 | 14733 ft | 372 kts | 301° |
| 2026-05-05 15:40 | 48.62970 | 3.52071 | 14466 ft | 371 kts | 301° |
| 2026-05-05 15:40 | 48.64371 | 3.48805 | 14211 ft | 369 kts | 301° |
| 2026-05-05 15:41 | 48.65763 | 3.45545 | 13960 ft | 368 kts | 301° |
| 2026-05-05 15:41 | 48.67146 | 3.42297 | 13705 ft | 366 kts | 301° |
| 2026-05-05 15:41 | 48.68526 | 3.39060 | 13439 ft | 365 kts | 301° |
| 2026-05-05 15:41 | 48.69899 | 3.35838 | 13184 ft | 364 kts | 301° |
| 2026-05-05 15:42 | 48.71268 | 3.32622 | 12924 ft | 363 kts | 301° |
| 2026-05-05 15:42 | 48.72630 | 3.29414 | 12694 ft | 361 kts | 301° |
| 2026-05-05 15:42 | 48.73966 | 3.26258 | 12441 ft | 360 kts | 301° |
| 2026-05-05 15:42 | 48.75319 | 3.23065 | 12191 ft | 359 kts | 301° |
| 2026-05-05 15:43 | 48.76664 | 3.19892 | 11952 ft | 358 kts | 301° |
| 2026-05-05 15:43 | 48.78006 | 3.16721 | 11707 ft | 357 kts | 301° |
| 2026-05-05 15:43 | 48.79342 | 3.13554 | 11465 ft | 356 kts | 301° |
| 2026-05-05 15:43 | 48.80671 | 3.10398 | 11226 ft | 354 kts | 301° |
| 2026-05-05 15:44 | 48.81999 | 3.07243 | 10981 ft | 353 kts | 301° |
| 2026-05-05 15:44 | 48.83321 | 3.04100 | 10737 ft | 353 kts | 303° |
| 2026-05-05 15:44 | 48.84704 | 3.01027 | 10490 ft | 348 kts | 310° |
| 2026-05-05 15:44 | 48.86262 | 2.98394 | 10350 ft | 322 kts | 314° |
| 2026-05-05 15:45 | 48.87725 | 2.95966 | 10087 ft | 303 kts | 314° |
| 2026-05-05 15:45 | 48.89113 | 2.93658 | 9668 ft | 297 kts | 314° |
| 2026-05-05 15:45 | 48.90498 | 2.91360 | 9533 ft | 294 kts | 314° |
| 2026-05-05 15:45 | 48.91875 | 2.89050 | 9397 ft | 294 kts | 310° |
| 2026-05-05 15:46 | 48.92934 | 2.86402 | 9276 ft | 295 kts | 294° |
| 2026-05-05 15:46 | 48.93475 | 2.83392 | 9144 ft | 297 kts | 277° |
| 2026-05-05 15:46 | 48.93478 | 2.80252 | 9029 ft | 296 kts | 266° |
| 2026-05-05 15:46 | 48.93310 | 2.77117 | 8901 ft | 298 kts | 266° |
| 2026-05-05 15:47 | 48.93145 | 2.73991 | 8786 ft | 294 kts | 265° |
| 2026-05-05 15:47 | 48.92983 | 2.70931 | 8662 ft | 294 kts | 266° |
| 2026-05-05 15:47 | 48.92819 | 2.67846 | 8472 ft | 292 kts | 266° |
| 2026-05-05 15:47 | 48.92654 | 2.64768 | 8275 ft | 292 kts | 266° |
| 2026-05-05 15:48 | 48.92489 | 2.61700 | 8067 ft | 290 kts | 267° |
| 2026-05-05 15:48 | 48.92325 | 2.58651 | 7876 ft | 289 kts | 268° |
| 2026-05-05 15:48 | 48.92158 | 2.55600 | 7679 ft | 288 kts | 267° |
| 2026-05-05 15:48 | 48.91988 | 2.52570 | 7482 ft | 287 kts | 267° |
| 2026-05-05 15:49 | 48.91820 | 2.49553 | 7286 ft | 286 kts | 267° |
| 2026-05-05 15:49 | 48.91656 | 2.46539 | 7092 ft | 285 kts | 267° |
| 2026-05-05 15:49 | 48.91491 | 2.43544 | 6895 ft | 284 kts | 267° |
| 2026-05-05 15:49 | 48.91326 | 2.40587 | 6707 ft | 283 kts | 267° |
| 2026-05-05 15:50 | 48.91161 | 2.37600 | 6515 ft | 283 kts | 267° |
| 2026-05-05 15:50 | 48.90996 | 2.34624 | 6322 ft | 283 kts | 267° |
| 2026-05-05 15:50 | 48.90830 | 2.31649 | 6122 ft | 281 kts | 266° |
| 2026-05-05 15:50 | 48.90661 | 2.28687 | 5927 ft | 281 kts | 266° |
| 2026-05-05 15:51 | 48.90491 | 2.25748 | 5736 ft | 274 kts | 266° |
| 2026-05-05 15:51 | 48.90325 | 2.22928 | 5551 ft | 262 kts | 267° |
| 2026-05-05 15:51 | 48.90166 | 2.20224 | 5378 ft | 251 kts | 267° |
| 2026-05-05 15:51 | 48.90015 | 2.17646 | 5194 ft | 240 kts | 267° |
| 2026-05-05 15:52 | 48.89871 | 2.15175 | 5066 ft | 229 kts | 268° |
| 2026-05-05 15:52 | 48.89733 | 2.12773 | 5018 ft | 228 kts | 268° |
| 2026-05-05 15:52 | 48.89621 | 2.10370 | 4964 ft | 226 kts | 273° |
| 2026-05-05 15:52 | 48.89925 | 2.08086 | 4926 ft | 219 kts | 300° |
| 2026-05-05 15:53 | 48.90844 | 2.06310 | 4868 ft | 212 kts | 326° |
| 2026-05-05 15:53 | 48.92159 | 2.05378 | 4815 ft | 208 kts | 352° |
| 2026-05-05 15:53 | 48.93582 | 2.05424 | 4763 ft | 205 kts | 17° |
| 2026-05-05 15:53 | 48.94839 | 2.06399 | 4713 ft | 204 kts | 41° |
| 2026-05-05 15:54 | 48.95693 | 2.08085 | 4667 ft | 206 kts | 63° |
| 2026-05-05 15:54 | 48.96321 | 2.10052 | 4611 ft | 207 kts | 62° |
| 2026-05-05 15:54 | 48.96959 | 2.12018 | 4560 ft | 207 kts | 62° |
| 2026-05-05 15:54 | 48.97596 | 2.13977 | 4507 ft | 206 kts | 62° |
| 2026-05-05 15:55 | 48.98233 | 2.15934 | 4448 ft | 206 kts | 61° |
| 2026-05-05 15:55 | 48.98867 | 2.17887 | 4399 ft | 205 kts | 62° |
| 2026-05-05 15:55 | 48.99500 | 2.19839 | 4355 ft | 206 kts | 62° |
| 2026-05-05 15:55 | 49.00130 | 2.21781 | 4309 ft | 201 kts | 62° |
| 2026-05-05 15:56 | 49.00717 | 2.23613 | 4230 ft | 190 kts | 65° |
| 2026-05-05 15:56 | 49.00985 | 2.25625 | 3929 ft | 193 kts | 82° |
| 2026-05-05 15:56 | 49.01099 | 2.27629 | 3650 ft | 191 kts | 82° |
| 2026-05-05 15:56 | 49.01211 | 2.29634 | 3405 ft | 189 kts | 82° |
| 2026-05-05 15:57 | 49.01321 | 2.31605 | 3176 ft | 184 kts | 81° |
| 2026-05-05 15:57 | 49.01427 | 2.33516 | 2906 ft | 179 kts | 81° |
| 2026-05-05 15:57 | 49.01531 | 2.35372 | 2661 ft | 171 kts | 81° |
| 2026-05-05 15:57 | 49.01626 | 2.37109 | 2436 ft | 157 kts | 81° |
| 2026-05-05 15:58 | 49.01713 | 2.38688 | 2237 ft | 143 kts | 79° |
| 2026-05-05 15:58 | 49.01793 | 2.40138 | 2065 ft | 134 kts | 79° |
| 2026-05-05 15:58 | 49.01871 | 2.41536 | 1887 ft | 131 kts | 78° |
| 2026-05-05 15:58 | 49.01948 | 2.42920 | 1707 ft | 131 kts | 78° |
| 2026-05-05 15:59 | 49.02025 | 2.44296 | 1527 ft | 131 kts | 78° |
| 2026-05-05 15:59 | 49.02100 | 2.45672 | 1351 ft | 130 kts | 79° |
| 2026-05-05 15:59 | 49.02176 | 2.47071 | 1167 ft | 134 kts | 80° |
| 2026-05-05 15:59 | 49.02252 | 2.48451 | 964 ft | 131 kts | 80° |
| 2026-05-05 16:00 | 49.02319 | 2.49864 | 771 ft | 132 kts | 82° |
| 2026-05-05 16:00 | 49.02404 | 2.51242 | 572 ft | 132 kts | 80° |
| 2026-05-05 16:00 | 49.02483 | 2.52632 | 406 ft | 131 kts | 81° |
| 2026-05-05 16:00 | 49.02559 | 2.53907 | 356 ft | 98 kts | 86° |
| 2026-05-05 16:01 | 49.02594 | 2.54700 | 353 ft | 59 kts | 85° |
| 2026-05-05 16:01 | 49.02601 | 2.55122 | 355 ft | 23 kts | 104° |
| 2026-05-05 16:01 | 49.02551 | 2.55350 | 355 ft | 21 kts | 116° |
| 2026-05-05 16:01 | 49.02500 | 2.55514 | 359 ft | 10 kts | 114° |
| 2026-05-05 16:02 | 49.02459 | 2.55593 | 354 ft | 9 kts | 146° |
| 2026-05-05 16:02 | 49.02401 | 2.55614 | 355 ft | 8 kts | 173° |
| 2026-05-05 16:02 | 49.02344 | 2.55621 | 356 ft | 10 kts | 175° |
| 2026-05-05 16:02 | 49.02237 | 2.55634 | 354 ft | 16 kts | 175° |
| 2026-05-05 16:03 | 49.02131 | 2.55650 | 357 ft | 14 kts | 158° |
| 2026-05-05 16:03 | 49.02086 | 2.55755 | 359 ft | 11 kts | 107° |
| 2026-05-05 16:03 | 49.02085 | 2.55874 | 354 ft | 12 kts | 84° |
| 2026-05-05 16:03 | 49.02094 | 2.56029 | 354 ft | 16 kts | 86° |
| 2026-05-05 16:04 | 49.02094 | 2.56213 | 354 ft | 19 kts | 100° |
| 2026-05-05 16:04 | 49.02028 | 2.56389 | 360 ft | 20 kts | 108° |
| 2026-05-05 16:04 | 49.02034 | 2.56609 | 362 ft | 22 kts | 85° |
| 2026-05-05 16:04 | 49.02041 | 2.56852 | 355 ft | 24 kts | 83° |
| 2026-05-05 16:05 | 49.02060 | 2.57111 | 354 ft | 26 kts | 85° |
| 2026-05-05 16:05 | 49.02074 | 2.57389 | 354 ft | 27 kts | 84° |
| 2026-05-05 16:05 | 49.02087 | 2.57671 | 354 ft | 26 kts | 88° |
| 2026-05-05 16:05 | 49.02047 | 2.57937 | 361 ft | 27 kts | 121° |
| 2026-05-05 16:06 | 49.01889 | 2.58106 | 360 ft | 29 kts | 164° |
| 2026-05-05 16:06 | 49.01683 | 2.58144 | 354 ft | 31 kts | 175° |
| 2026-05-05 16:06 | 49.01462 | 2.58167 | 358 ft | 33 kts | 175° |
| 2026-05-05 16:06 | 49.01294 | 2.58190 | 357 ft | 23 kts | 175° |
| 2026-05-05 16:07 | 49.01143 | 2.58211 | 359 ft | 21 kts | 175° |
| 2026-05-05 16:07 | 49.01002 | 2.58228 | 354 ft | 20 kts | 174° |
| 2026-05-05 16:07 | 49.00871 | 2.58256 | 354 ft | 18 kts | 167° |
| 2026-05-05 16:07 | 49.00832 | 2.58390 | 354 ft | 15 kts | 90° |
| 2026-05-05 16:08 | 49.00845 | 2.58564 | 354 ft | 18 kts | 86° |
| 2026-05-05 16:08 | 49.00846 | 2.58727 | 354 ft | 13 kts | 99° |
| 2026-05-05 16:08 | 49.00781 | 2.58808 | 362 ft | 12 kts | 175° |
| 2026-05-05 16:08 | 49.00698 | 2.58821 | 354 ft | 12 kts | 174° |
| 2026-05-05 16:09 | 49.00636 | 2.58842 | 355 ft | 6 kts | 122° |
| 2026-05-05 16:09 | 49.00636 | 2.58899 | 361 ft | 5 kts | 83° |
| 2026-05-05 16:09 | 49.00639 | 2.58945 | 360 ft | 1 kts | 85° |